Time;durP1;ratioP1;P1;durP2;ratioP2;P2;SDS_P1;SDS_P2;PMS_P1;PMS_P2;Temp;Humidity;BMP_temperature;BMP_pressure;BME280_temperature;BME280_humidity;BME280_pressure;Samples;Min_cycle;Max_cycle;Signal;HPM_P1;HPM_P2
2022/03/06 00:02:19;;;;;;;24.70;7.90;;;;;;;;;;6128565;23;20002;-87
2022/03/06 00:04:45;;;;;;;19.05;7.13;;;;;;;;;;6127367;23;20009;-88
2022/03/06 00:07:11;;;;;;;20.25;7.35;;;;;;;;;;6128174;23;20060;-89
2022/03/06 00:09:38;;;;;;;29.20;8.30;;;;;;;;;;6127726;23;20084;-88
2022/03/06 00:12:04;;;;;;;18.45;7.00;;;;;;;;;;6127925;23;20024;-89
2022/03/06 00:14:30;;;;;;;23.55;8.18;;;;;;;;;;6127725;23;20006;-88
2022/03/06 00:16:57;;;;;;;24.77;7.15;;;;;;;;;;6127687;23;20001;-87
2022/03/06 00:19:23;;;;;;;25.25;7.60;;;;;;;;;;6128081;23;20377;-88
2022/03/06 00:21:49;;;;;;;21.30;7.63;;;;;;;;;;6128824;23;20418;-88
2022/03/06 00:24:15;;;;;;;17.65;6.05;;;;;;;;;;6128599;23;20433;-87
2022/03/06 00:26:42;;;;;;;24.58;7.25;;;;;;;;;;6127208;23;20012;-87
2022/03/06 00:29:08;;;;;;;19.08;6.90;;;;;;;;;;6126791;23;20442;-87
2022/03/06 00:31:34;;;;;;;17.98;6.03;;;;;;;;;;6127125;23;20020;-87
2022/03/06 00:34:00;;;;;;;27.73;7.15;;;;;;;;;;6127000;23;20009;-86
2022/03/06 00:36:27;;;;;;;19.92;5.72;;;;;;;;;;6126858;23;20334;-93
2022/03/06 00:38:53;;;;;;;24.80;6.00;;;;;;;;;;6126823;23;20085;-87
2022/03/06 00:41:20;;;;;;;24.77;7.10;;;;;;;;;;6128009;23;20013;-86
2022/03/06 00:43:46;;;;;;;30.45;7.40;;;;;;;;;;6126960;23;20370;-87
2022/03/06 00:46:12;;;;;;;22.20;6.90;;;;;;;;;;6126820;23;20413;-86
2022/03/06 00:48:38;;;;;;;24.83;8.00;;;;;;;;;;6126336;23;20029;-86
2022/03/06 00:51:05;;;;;;;21.45;6.72;;;;;;;;;;6126756;23;20016;-86
2022/03/06 00:53:31;;;;;;;27.95;7.60;;;;;;;;;;6128398;23;20002;-85
2022/03/06 00:55:57;;;;;;;23.77;7.07;;;;;;;;;;6126864;23;20002;-85
2022/03/06 00:58:24;;;;;;;23.27;7.10;;;;;;;;;;6128063;23;20002;-85
2022/03/06 01:00:50;;;;;;;27.58;8.15;;;;;;;;;;6126174;23;20060;-85
2022/03/06 01:03:17;;;;;;;27.60;10.18;;;;;;;;;;6126740;23;20018;-86
2022/03/06 01:05:44;;;;;;;27.75;9.27;;;;;;;;;;6126678;23;20006;-85
2022/03/06 01:08:10;;;;;;;33.67;10.38;;;;;;;;;;6102075;23;20014;-85
2022/03/06 01:10:37;;;;;;;29.20;8.80;;;;;;;;;;6126244;23;20022;-84
2022/03/06 01:13:05;;;;;;;30.67;9.38;;;;;;;;;;6127690;23;20361;-86
2022/03/06 01:15:31;;;;;;;32.40;10.23;;;;;;;;;;6127776;23;20005;-85
2022/03/06 01:17:58;;;;;;;30.38;9.32;;;;;;;;;;6127814;23;20006;-87
2022/03/06 01:20:24;;;;;;;29.65;10.07;;;;;;;;;;6125890;23;20447;-87
2022/03/06 01:22:51;;;;;;;35.88;11.75;;;;;;;;;;6126162;23;20036;-87
2022/03/06 01:25:18;;;;;;;32.35;11.45;;;;;;;;;;6126699;23;20039;-87
2022/03/06 01:27:44;;;;;;;31.00;11.07;;;;;;;;;;6127592;23;20073;-86
2022/03/06 01:30:12;;;;;;;34.40;11.30;;;;;;;;;;6125770;23;20307;-87
2022/03/06 01:32:38;;;;;;;33.30;11.90;;;;;;;;;;6127851;23;20006;-86
2022/03/06 01:35:05;;;;;;;29.65;10.77;;;;;;;;;;6126305;23;20418;-87
2022/03/06 01:37:32;;;;;;;37.42;10.73;;;;;;;;;;6126438;23;20013;-88
2022/03/06 01:39:58;;;;;;;38.13;11.68;;;;;;;;;;6126184;23;20006;-87
2022/03/06 01:42:25;;;;;;;38.47;11.50;;;;;;;;;;6125763;23;20002;-88
2022/03/06 01:44:52;;;;;;;34.83;11.73;;;;;;;;;;6125418;23;20017;-87
2022/03/06 01:47:51;;;;;;;33.22;12.23;;;;;;;;;;6125494;23;20006;-86
2022/03/06 01:50:20;;;;;;;33.22;12.73;;;;;;;;;;6062620;23;20018;-87
2022/03/06 01:52:46;;;;;;;27.92;12.57;;;;;;;;;;6125706;23;20040;-87
2022/03/06 01:55:14;;;;;;;29.58;11.32;;;;;;;;;;6126333;23;20413;-86
2022/03/06 01:57:41;;;;;;;32.10;9.98;;;;;;;;;;6125854;23;20013;-85
2022/03/06 02:00:09;;;;;;;26.38;9.65;;;;;;;;;;6125225;23;20006;-86
2022/03/06 02:02:35;;;;;;;33.65;11.55;;;;;;;;;;6127400;23;19994;-86
2022/03/06 02:05:01;;;;;;;25.10;9.75;;;;;;;;;;6126096;23;20617;-87
2022/03/06 02:07:28;;;;;;;27.55;9.98;;;;;;;;;;6125897;23;20009;-87
2022/03/06 02:09:54;;;;;;;35.10;11.27;;;;;;;;;;6125977;23;20009;-85
2022/03/06 02:12:23;;;;;;;34.25;11.77;;;;;;;;;;6127586;23;19997;-86
2022/03/06 02:14:57;;;;;;;38.03;11.02;;;;;;;;;;6125763;23;20002;-85
2022/03/06 02:17:24;;;;;;;27.63;12.07;;;;;;;;;;6129096;23;19997;-85
2022/03/06 02:19:57;;;;;;;39.85;15.38;;;;;;;;;;6123842;23;20013;-86
2022/03/06 02:22:24;;;;;;;38.58;14.82;;;;;;;;;;6125493;23;20002;-87
2022/03/06 02:24:51;;;;;;;32.22;12.73;;;;;;;;;;6124985;23;20006;-86
2022/03/06 02:27:18;;;;;;;41.78;14.00;;;;;;;;;;6125348;23;20005;-88
2022/03/06 02:29:44;;;;;;;37.20;11.82;;;;;;;;;;6126709;23;20014;-86
2022/03/06 02:32:11;;;;;;;25.85;9.98;;;;;;;;;;6126450;23;20010;-83
2022/03/06 02:34:38;;;;;;;24.60;9.68;;;;;;;;;;6100741;23;20005;-86
2022/03/06 02:37:05;;;;;;;26.73;8.80;;;;;;;;;;6099659;23;20009;-86
2022/03/06 02:39:31;;;;;;;24.05;7.88;;;;;;;;;;6099182;23;20333;-86
2022/03/06 02:41:58;;;;;;;21.38;7.97;;;;;;;;;;6099382;23;20065;-86
2022/03/06 02:44:25;;;;;;;20.95;8.45;;;;;;;;;;6124988;23;20002;-85
2022/03/06 02:46:54;;;;;;;35.05;11.02;;;;;;;;;;6124960;23;20033;-85
2022/03/06 02:49:20;;;;;;;26.05;8.75;;;;;;;;;;6098943;23;20040;-87
2022/03/06 02:51:47;;;;;;;20.73;7.18;;;;;;;;;;6124032;23;20009;-85
2022/03/06 02:54:14;;;;;;;26.52;8.10;;;;;;;;;;6100484;23;20009;-88
2022/03/06 02:56:41;;;;;;;46.50;21.33;;;;;;;;;;6101012;23;20445;-87
2022/03/06 02:59:08;;;;;;;44.55;17.48;;;;;;;;;;6127546;23;20013;-89
2022/03/06 03:01:43;;;;;;;44.13;11.57;;;;;;;;;;6100967;23;20459;-88
2022/03/06 03:04:09;;;;;;;39.70;11.35;;;;;;;;;;6101268;23;20002;-87
2022/03/06 03:06:36;;;;;;;27.40;9.50;;;;;;;;;;6100738;23;20002;-89
2022/03/06 03:09:06;;;;;;;33.83;9.60;;;;;;;;;;6101041;23;20048;-87
2022/03/06 03:11:33;;;;;;;37.35;11.80;;;;;;;;;;6101352;23;20006;-89
2022/03/06 03:14:03;;;;;;;36.42;11.02;;;;;;;;;;6101221;23;20076;-88
2022/03/06 03:16:29;;;;;;;40.33;11.13;;;;;;;;;;6101415;23;20085;-88
2022/03/06 03:18:55;;;;;;;29.73;9.73;;;;;;;;;;6101125;23;20006;-89
2022/03/06 03:21:22;;;;;;;27.30;9.80;;;;;;;;;;6126397;23;20002;-88
2022/03/06 03:23:48;;;;;;;32.95;9.88;;;;;;;;;;6101093;23;20029;-88
2022/03/06 03:26:14;;;;;;;29.40;11.38;;;;;;;;;;6101283;23;20032;-87
2022/03/06 03:28:40;;;;;;;26.48;11.45;;;;;;;;;;6100119;23;20006;-87
2022/03/06 03:31:07;;;;;;;29.40;11.25;;;;;;;;;;6100563;23;20172;-88
2022/03/06 03:33:33;;;;;;;31.38;12.98;;;;;;;;;;6100915;23;20029;-87
2022/03/06 03:35:59;;;;;;;29.92;12.98;;;;;;;;;;6100942;23;20516;-88
2022/03/06 03:38:25;;;;;;;36.33;11.18;;;;;;;;;;6101317;23;20006;-89
2022/03/06 03:40:53;;;;;;;31.05;10.73;;;;;;;;;;6101116;23;20006;-88
2022/03/06 03:43:19;;;;;;;46.58;10.43;;;;;;;;;;6100563;23;20006;-87
2022/03/06 03:45:46;;;;;;;49.17;10.98;;;;;;;;;;6100588;23;20002;-86
2022/03/06 03:48:12;;;;;;;36.45;10.43;;;;;;;;;;6100439;23;20013;-87
2022/03/06 03:50:38;;;;;;;47.08;12.20;;;;;;;;;;6100428;23;20014;-86
2022/03/06 03:53:05;;;;;;;43.47;11.80;;;;;;;;;;6126663;23;19998;-86
2022/03/06 03:55:31;;;;;;;36.90;10.32;;;;;;;;;;6100276;23;20337;-87
2022/03/06 03:57:57;;;;;;;46.50;11.05;;;;;;;;;;6100864;23;20093;-87
2022/03/06 04:00:24;;;;;;;32.65;9.88;;;;;;;;;;6099952;23;20006;-87
2022/03/06 04:02:50;;;;;;;42.85;11.77;;;;;;;;;;6100286;23;20002;-87
2022/03/06 04:05:16;;;;;;;34.72;9.77;;;;;;;;;;6100739;23;20013;-87
2022/03/06 04:07:43;;;;;;;29.90;9.48;;;;;;;;;;6100230;23;20013;-87
2022/03/06 04:10:09;;;;;;;36.53;10.57;;;;;;;;;;6125253;23;20446;-86
2022/03/06 04:12:35;;;;;;;32.33;9.95;;;;;;;;;;6125026;23;20029;-86
2022/03/06 04:15:02;;;;;;;30.60;7.85;;;;;;;;;;6100387;23;20002;-88
2022/03/06 04:17:28;;;;;;;34.92;7.47;;;;;;;;;;6099984;23;20002;-86
2022/03/06 04:19:54;;;;;;;38.80;8.48;;;;;;;;;;6099658;23;20125;-87
2022/03/06 04:22:20;;;;;;;23.52;6.80;;;;;;;;;;6100392;23;20029;-87
2022/03/06 04:24:47;;;;;;;36.00;7.45;;;;;;;;;;6100824;23;20021;-88
2022/03/06 04:27:13;;;;;;;30.85;6.72;;;;;;;;;;6100012;23;20010;-87
2022/03/06 04:29:39;;;;;;;28.35;6.85;;;;;;;;;;6107712;23;20014;-87
2022/03/06 04:32:06;;;;;;;32.50;7.55;;;;;;;;;;6125066;23;20013;-88
2022/03/06 04:34:32;;;;;;;31.15;7.25;;;;;;;;;;6126329;23;19998;-88
2022/03/06 04:36:58;;;;;;;21.40;6.55;;;;;;;;;;6124696;23;20006;-86
2022/03/06 04:39:24;;;;;;;21.63;6.20;;;;;;;;;;6124975;23;20033;-87
2022/03/06 04:41:51;;;;;;;30.83;8.52;;;;;;;;;;6124952;23;20006;-87
2022/03/06 04:44:17;;;;;;;32.47;8.32;;;;;;;;;;6125514;23;20101;-88
2022/03/06 04:46:46;;;;;;;27.40;7.65;;;;;;;;;;6125411;23;20094;-87
2022/03/06 04:49:12;;;;;;;25.45;8.38;;;;;;;;;;6127061;23;20010;-89
2022/03/06 04:51:39;;;;;;;26.38;9.10;;;;;;;;;;6126525;23;20033;-86
2022/03/06 04:54:16;;;;;;;33.58;11.90;;;;;;;;;;6127010;23;20029;-86
2022/03/06 04:56:42;;;;;;;46.00;15.77;;;;;;;;;;6126817;23;20036;-87
2022/03/06 04:59:09;;;;;;;36.60;12.98;;;;;;;;;;6128832;23;20077;-87
2022/03/06 05:01:35;;;;;;;40.25;13.70;;;;;;;;;;6126987;23;20113;-88
2022/03/06 05:04:01;;;;;;;26.33;9.13;;;;;;;;;;6127141;23;20559;-87
2022/03/06 05:06:28;;;;;;;29.25;9.20;;;;;;;;;;6126400;23;20366;-86
2022/03/06 05:08:54;;;;;;;33.72;9.63;;;;;;;;;;6127204;23;20421;-89
2022/03/06 05:11:20;;;;;;;30.33;7.75;;;;;;;;;;6126964;23;20084;-87
2022/03/06 05:13:47;;;;;;;32.63;7.90;;;;;;;;;;6128534;23;20077;-88
2022/03/06 05:16:13;;;;;;;46.13;8.93;;;;;;;;;;6126924;23;20061;-87
2022/03/06 05:18:40;;;;;;;42.65;11.13;;;;;;;;;;6127115;23;20002;-89
2022/03/06 05:21:06;;;;;;;33.65;8.50;;;;;;;;;;6127145;23;20108;-86
2022/03/06 05:23:32;;;;;;;35.28;6.85;;;;;;;;;;6127257;23;20006;-87
2022/03/06 05:25:58;;;;;;;27.05;6.05;;;;;;;;;;6128467;23;20006;-87
2022/03/06 05:28:28;;;;;;;24.70;6.63;;;;;;;;;;6127161;23;20013;-88
2022/03/06 05:30:55;;;;;;;36.55;7.55;;;;;;;;;;6126538;23;20026;-87
2022/03/06 05:33:21;;;;;;;30.05;6.47;;;;;;;;;;6127097;23;20476;-87
2022/03/06 05:35:48;;;;;;;29.40;6.78;;;;;;;;;;6126767;23;20425;-88
2022/03/06 05:38:14;;;;;;;33.97;7.85;;;;;;;;;;6127230;23;20009;-89
2022/03/06 05:40:40;;;;;;;34.42;8.63;;;;;;;;;;6126942;23;20097;-88
2022/03/06 05:43:07;;;;;;;31.70;7.25;;;;;;;;;;6128490;23;19998;-88
2022/03/06 05:45:33;;;;;;;27.40;6.38;;;;;;;;;;6127105;23;20025;-90
2022/03/06 05:47:59;;;;;;;36.63;5.95;;;;;;;;;;6128166;23;20119;-88
2022/03/06 05:53:29;;;;;;;27.58;6.82;;;;;;;;;;6128600;23;20029;-90
2022/03/06 05:55:55;;;;;;;29.08;6.88;;;;;;;;;;6127079;23;20433;-89
2022/03/06 06:01:32;;;;;;;39.10;5.47;;;;;;;;;;6128410;23;20016;-90
2022/03/06 06:03:59;;;;;;;31.75;5.72;;;;;;;;;;6126906;23;20009;-89
2022/03/06 06:06:26;;;;;;;30.80;4.55;;;;;;;;;;6127871;23;20002;-88
2022/03/06 06:08:53;;;;;;;28.80;5.07;;;;;;;;;;6126375;23;20006;-88
2022/03/06 06:11:19;;;;;;;32.30;5.60;;;;;;;;;;6125072;23;20014;-89
2022/03/06 06:13:46;;;;;;;29.98;4.60;;;;;;;;;;6125450;23;20417;-90
2022/03/06 06:16:13;;;;;;;30.30;4.70;;;;;;;;;;6124674;23;20002;-88
2022/03/06 06:18:40;;;;;;;36.85;4.28;;;;;;;;;;6125062;23;20426;-88
2022/03/06 06:21:07;;;;;;;30.20;3.95;;;;;;;;;;6126418;23;20009;-88
2022/03/06 06:23:33;;;;;;;23.30;3.97;;;;;;;;;;6125910;23;20030;-88
2022/03/06 06:25:59;;;;;;;39.03;3.60;;;;;;;;;;6124975;23;20057;-87
2022/03/06 06:28:26;;;;;;;31.60;4.13;;;;;;;;;;6125727;23;20002;-87
2022/03/06 06:30:52;;;;;;;24.60;4.32;;;;;;;;;;6124622;23;20022;-89
2022/03/06 06:33:19;;;;;;;36.72;4.60;;;;;;;;;;6126055;23;20029;-87
2022/03/06 06:35:45;;;;;;;27.17;4.47;;;;;;;;;;6124603;23;20005;-87
2022/03/06 06:38:11;;;;;;;28.17;4.05;;;;;;;;;;6126526;23;20006;-87
2022/03/06 06:40:42;;;;;;;31.60;4.30;;;;;;;;;;6124499;23;20092;-88
2022/03/06 06:43:08;;;;;;;29.15;4.85;;;;;;;;;;6123856;23;20341;-87
2022/03/06 06:45:34;;;;;;;26.35;4.25;;;;;;;;;;6126403;23;19999;-88
2022/03/06 06:48:01;;;;;;;26.45;5.00;;;;;;;;;;6124483;23;20005;-87
2022/03/06 06:50:27;;;;;;;24.05;4.32;;;;;;;;;;6125173;23;20029;-89
2022/03/06 06:52:54;;;;;;;16.65;2.97;;;;;;;;;;6126812;23;20417;-88
2022/03/06 06:55:22;;;;;;;24.83;3.08;;;;;;;;;;6125086;23;20006;-87
2022/03/06 06:57:49;;;;;;;28.42;4.20;;;;;;;;;;6124739;23;20010;-89
2022/03/06 07:00:18;;;;;;;19.20;3.67;;;;;;;;;;6124906;23;20006;-87
2022/03/06 07:02:46;;;;;;;28.85;4.18;;;;;;;;;;6124661;23;20005;-88
2022/03/06 07:05:15;;;;;;;20.83;2.80;;;;;;;;;;6124276;23;20052;-89
2022/03/06 07:07:42;;;;;;;18.48;3.13;;;;;;;;;;6124593;23;20034;-88
2022/03/06 07:10:08;;;;;;;16.42;2.70;;;;;;;;;;6124100;23;20018;-88
2022/03/06 07:12:45;;;;;;;31.83;3.28;;;;;;;;;;6124117;23;20006;-88
2022/03/06 07:15:13;;;;;;;14.07;2.67;;;;;;;;;;6124413;23;20045;-87
2022/03/06 07:17:40;;;;;;;25.27;3.25;;;;;;;;;;6125476;23;20009;-87
2022/03/06 07:20:06;;;;;;;23.42;3.33;;;;;;;;;;6124737;23;20417;-89
2022/03/06 07:22:33;;;;;;;24.45;3.17;;;;;;;;;;6125566;23;20002;-87
2022/03/06 07:24:59;;;;;;;18.33;2.85;;;;;;;;;;6124750;23;20006;-87
2022/03/06 07:27:25;;;;;;;15.18;3.13;;;;;;;;;;6123885;23;20063;-87
2022/03/06 07:29:52;;;;;;;18.67;2.83;;;;;;;;;;6122970;23;20054;-88
2022/03/06 07:32:18;;;;;;;27.10;3.75;;;;;;;;;;6124861;23;20014;-87
2022/03/06 07:34:44;;;;;;;27.42;3.78;;;;;;;;;;6124892;23;20006;-86
2022/03/06 07:37:11;;;;;;;17.27;3.00;;;;;;;;;;6124921;23;20005;-88
2022/03/06 07:39:37;;;;;;;18.38;3.63;;;;;;;;;;6124224;23;20061;-87
2022/03/06 07:42:03;;;;;;;21.45;3.78;;;;;;;;;;6124583;23;20010;-87
2022/03/06 07:44:29;;;;;;;18.13;3.28;;;;;;;;;;6124368;23;20003;-87
2022/03/06 07:46:56;;;;;;;19.15;3.03;;;;;;;;;;6124720;23;20009;-87
2022/03/06 07:49:23;;;;;;;31.58;4.18;;;;;;;;;;6124549;23;20006;-87
2022/03/06 07:51:49;;;;;;;28.10;4.50;;;;;;;;;;6123895;23;20013;-87
2022/03/06 07:54:17;;;;;;;19.27;3.72;;;;;;;;;;6125433;23;20090;-88
2022/03/06 07:56:45;;;;;;;20.63;3.58;;;;;;;;;;6124759;23;20033;-87
2022/03/06 07:59:12;;;;;;;22.30;4.00;;;;;;;;;;6125840;23;20466;-90
2022/03/06 08:01:38;;;;;;;24.90;3.75;;;;;;;;;;6124452;23;20009;-88
2022/03/06 08:04:04;;;;;;;24.27;3.83;;;;;;;;;;6123953;23;20101;-88
2022/03/06 08:06:31;;;;;;;16.40;3.35;;;;;;;;;;6123496;23;20006;-88
2022/03/06 08:08:57;;;;;;;21.60;4.05;;;;;;;;;;6124488;23;20010;-91
2022/03/06 08:11:24;;;;;;;19.30;3.95;;;;;;;;;;6123607;23;20021;-89
2022/03/06 08:13:50;;;;;;;16.90;3.22;;;;;;;;;;6124129;23;20009;-89
2022/03/06 08:16:16;;;;;;;19.45;3.63;;;;;;;;;;6124051;23;20036;-91
2022/03/06 08:18:42;;;;;;;20.95;3.08;;;;;;;;;;6123583;23;20080;-87
2022/03/06 08:21:09;;;;;;;15.30;3.15;;;;;;;;;;6125860;23;20002;-89
2022/03/06 08:23:35;;;;;;;17.17;3.92;;;;;;;;;;6126579;23;20002;-88
2022/03/06 08:26:01;;;;;;;15.63;3.85;;;;;;;;;;6125494;23;20009;-88
2022/03/06 08:28:27;;;;;;;25.38;4.50;;;;;;;;;;6127307;23;20002;-90
2022/03/06 08:30:54;;;;;;;17.08;4.15;;;;;;;;;;6125878;23;20049;-89
2022/03/06 08:33:20;;;;;;;19.30;3.45;;;;;;;;;;6126620;23;20298;-88
2022/03/06 08:35:46;;;;;;;17.13;3.30;;;;;;;;;;6126105;23;20038;-87
2022/03/06 08:38:12;;;;;;;14.60;3.03;;;;;;;;;;6125762;23;20017;-87
2022/03/06 08:40:39;;;;;;;16.40;3.50;;;;;;;;;;6126055;23;20002;-87
2022/03/06 08:43:05;;;;;;;12.63;3.40;;;;;;;;;;6126473;23;20089;-89
2022/03/06 08:45:31;;;;;;;16.77;3.13;;;;;;;;;;6126344;23;20009;-90
2022/03/06 08:47:58;;;;;;;14.55;3.40;;;;;;;;;;6128064;23;20491;-88
2022/03/06 08:50:24;;;;;;;13.45;2.97;;;;;;;;;;6126312;23;20421;-88
2022/03/06 08:52:50;;;;;;;11.07;2.60;;;;;;;;;;6125933;23;20006;-91
2022/03/06 08:55:17;;;;;;;14.32;3.33;;;;;;;;;;6126727;23;20008;-90
2022/03/06 08:57:43;;;;;;;15.48;2.58;;;;;;;;;;6125854;23;20009;-88
2022/03/06 09:00:09;;;;;;;12.70;3.05;;;;;;;;;;6125455;23;20006;-86
2022/03/06 09:02:36;;;;;;;10.63;2.92;;;;;;;;;;6124949;23;20002;-88
2022/03/06 09:05:02;;;;;;;11.95;2.95;;;;;;;;;;6125614;23;20010;-89
2022/03/06 09:07:28;;;;;;;13.05;3.00;;;;;;;;;;6126660;23;20060;-88
2022/03/06 09:09:55;;;;;;;12.85;3.72;;;;;;;;;;6126154;23;20006;-88
2022/03/06 09:12:22;;;;;;;13.55;3.65;;;;;;;;;;6127862;23;20006;-89
2022/03/06 09:14:48;;;;;;;15.32;3.42;;;;;;;;;;6125260;23;20029;-87
2022/03/06 09:17:15;;;;;;;17.63;3.17;;;;;;;;;;6126030;23;20010;-89
2022/03/06 09:19:41;;;;;;;19.45;3.65;;;;;;;;;;6125811;23;20009;-89
2022/03/06 09:22:07;;;;;;;14.25;3.58;;;;;;;;;;6125647;23;20307;-88
2022/03/06 09:24:33;;;;;;;13.43;3.75;;;;;;;;;;6126167;23;20723;-88
2022/03/06 09:27:00;;;;;;;13.07;3.63;;;;;;;;;;6125896;23;20009;-88
2022/03/06 09:29:27;;;;;;;8.82;3.20;;;;;;;;;;6124781;23;20030;-90
2022/03/06 09:31:54;;;;;;;13.05;3.20;;;;;;;;;;6125644;23;20034;-87
2022/03/06 09:34:20;;;;;;;13.52;3.70;;;;;;;;;;6125399;23;20341;-87
2022/03/06 09:36:47;;;;;;;13.57;4.35;;;;;;;;;;6125013;23;20002;-87
2022/03/06 09:39:13;;;;;;;12.73;3.92;;;;;;;;;;6125214;23;20002;-87
2022/03/06 09:41:40;;;;;;;15.13;3.95;;;;;;;;;;6125295;23;20337;-90
2022/03/06 09:44:10;;;;;;;12.43;4.28;;;;;;;;;;6125246;23;20009;-87
2022/03/06 09:46:37;;;;;;;14.13;3.80;;;;;;;;;;6125056;23;20005;-87
2022/03/06 09:49:04;;;;;;;15.68;4.43;;;;;;;;;;6125058;23;20006;-89
2022/03/06 09:51:34;;;;;;;24.30;4.65;;;;;;;;;;6124673;23;20028;-89
2022/03/06 09:54:01;;;;;;;16.88;4.97;;;;;;;;;;6125131;23;20006;-90
2022/03/06 09:56:27;;;;;;;19.75;4.95;;;;;;;;;;6126682;23;20002;-93
2022/03/06 09:58:54;;;;;;;22.42;5.18;;;;;;;;;;6125068;23;20002;-87
2022/03/06 10:01:20;;;;;;;15.65;6.00;;;;;;;;;;6125704;23;20002;-87
2022/03/06 10:03:46;;;;;;;22.70;5.95;;;;;;;;;;6124531;23;20141;-89
2022/03/06 10:06:12;;;;;;;22.08;7.18;;;;;;;;;;6124197;23;20456;-86
2022/03/06 10:08:39;;;;;;;26.70;6.65;;;;;;;;;;6124132;23;20008;-87
2022/03/06 10:11:09;;;;;;;27.55;6.68;;;;;;;;;;6125087;23;20040;-86
2022/03/06 10:13:37;;;;;;;26.60;6.93;;;;;;;;;;6125466;23;20085;-87
2022/03/06 10:16:05;;;;;;;25.95;7.90;;;;;;;;;;6124395;23;20007;-88
2022/03/06 10:18:32;;;;;;;27.80;8.52;;;;;;;;;;6123478;23;20081;-88
2022/03/06 10:21:02;;;;;;;27.17;7.63;;;;;;;;;;6124943;23;19999;-88
2022/03/06 10:23:29;;;;;;;25.42;7.95;;;;;;;;;;6124812;23;20010;-88
2022/03/06 10:26:12;;;;;;;29.30;8.25;;;;;;;;;;6127004;23;20007;-87
2022/03/06 10:28:48;;;;;;;35.22;9.60;;;;;;;;;;6123640;23;20013;-89
2022/03/06 10:31:15;;;;;;;28.55;10.10;;;;;;;;;;6124167;23;20053;-89
2022/03/06 10:33:41;;;;;;;26.77;9.63;;;;;;;;;;6124148;23;20002;-89
2022/03/06 10:36:09;;;;;;;33.95;10.52;;;;;;;;;;6125077;23;20010;-88
2022/03/06 10:38:36;;;;;;;34.35;11.90;;;;;;;;;;6123811;23;20006;-90
2022/03/06 10:41:13;;;;;;;35.53;11.85;;;;;;;;;;6123305;23;20034;-88
2022/03/06 10:43:40;;;;;;;35.83;11.70;;;;;;;;;;6124043;23;20002;-88
2022/03/06 10:46:14;;;;;;;37.03;11.98;;;;;;;;;;6123978;23;20434;-89
2022/03/06 10:48:42;;;;;;;30.08;11.48;;;;;;;;;;6123679;23;20013;-88
2022/03/06 10:51:19;;;;;;;37.47;14.43;;;;;;;;;;6124020;23;20018;-91
2022/03/06 10:53:51;;;;;;;41.72;16.17;;;;;;;;;;6120917;23;20053;-90
2022/03/06 10:56:18;;;;;;;45.42;15.55;;;;;;;;;;6125254;23;20013;-88
2022/03/06 10:58:45;;;;;;;43.47;15.50;;;;;;;;;;6124444;23;20105;-88
2022/03/06 11:01:12;;;;;;;38.15;16.50;;;;;;;;;;6126147;23;20069;-89
2022/03/06 11:03:39;;;;;;;44.47;17.05;;;;;;;;;;6125137;23;20088;-89
2022/03/06 11:06:07;;;;;;;47.03;17.77;;;;;;;;;;6124624;23;20009;-89
2022/03/06 11:08:34;;;;;;;48.20;18.27;;;;;;;;;;6124583;23;20006;-89
2022/03/06 11:11:00;;;;;;;38.40;15.32;;;;;;;;;;6124007;23;20041;-91
2022/03/06 11:13:30;;;;;;;45.58;16.35;;;;;;;;;;6124986;23;20002;-89
2022/03/06 11:15:57;;;;;;;45.83;16.70;;;;;;;;;;6124277;23;20005;-89
2022/03/06 11:18:25;;;;;;;45.25;16.23;;;;;;;;;;6124406;23;20006;-88
2022/03/06 11:20:52;;;;;;;50.88;17.52;;;;;;;;;;6124801;23;20005;-88
2022/03/06 11:23:23;;;;;;;58.88;20.67;;;;;;;;;;6124177;23;20106;-90
2022/03/06 11:26:10;;;;;;;46.95;18.13;;;;;;;;;;6124660;23;20013;-88
2022/03/06 11:28:42;;;;;;;57.45;19.25;;;;;;;;;;6065760;23;20092;-89
2022/03/06 11:31:08;;;;;;;56.25;18.40;;;;;;;;;;6122165;23;20029;-88
2022/03/06 11:33:35;;;;;;;48.75;20.05;;;;;;;;;;6124427;23;20415;-88
2022/03/06 11:36:17;;;;;;;48.95;17.83;;;;;;;;;;6122301;23;20002;-88
2022/03/06 11:38:46;;;;;;;39.50;15.63;;;;;;;;;;6123718;23;20006;-88
2022/03/06 11:41:13;;;;;;;39.85;15.90;;;;;;;;;;6123483;23;20414;-88
2022/03/06 11:43:47;;;;;;;40.03;15.35;;;;;;;;;;6124389;23;20056;-87
2022/03/06 11:46:18;;;;;;;42.17;16.33;;;;;;;;;;6123919;23;20002;-88
2022/03/06 11:48:44;;;;;;;48.78;18.63;;;;;;;;;;6123621;23;20444;-87
2022/03/06 11:51:13;;;;;;;52.22;19.10;;;;;;;;;;6123754;23;20025;-91
2022/03/06 11:53:51;;;;;;;44.95;18.98;;;;;;;;;;6125949;23;20104;-89
2022/03/06 11:56:32;;;;;;;52.08;22.77;;;;;;;;;;6124120;23;20057;-88
2022/03/06 11:58:59;;;;;;;60.20;28.25;;;;;;;;;;6126427;23;20006;-90
2022/03/06 12:01:35;;;;;;;66.35;29.25;;;;;;;;;;6126147;23;20005;-90
2022/03/06 12:04:02;;;;;;;66.65;31.35;;;;;;;;;;6126414;23;20487;-90
2022/03/06 12:06:29;;;;;;;63.25;30.35;;;;;;;;;;6124835;23;20326;-88
2022/03/06 12:08:55;;;;;;;55.80;24.85;;;;;;;;;;6126099;23;20385;-88
2022/03/06 12:11:22;;;;;;;47.85;24.38;;;;;;;;;;6126304;23;20009;-90
2022/03/06 12:13:51;;;;;;;52.22;20.48;;;;;;;;;;6126419;23;20009;-88
2022/03/06 12:16:18;;;;;;;55.03;18.63;;;;;;;;;;6126520;23;20033;-87
2022/03/06 12:19:03;;;;;;;55.20;18.25;;;;;;;;;;6125694;23;20008;-88
2022/03/06 12:21:39;;;;;;;60.13;16.15;;;;;;;;;;6127535;23;20085;-91
2022/03/06 12:24:09;;;;;;;40.10;14.07;;;;;;;;;;6126495;23;20025;-89
2022/03/06 12:26:42;;;;;;;51.63;17.33;;;;;;;;;;6125783;23;20005;-90
2022/03/06 12:29:09;;;;;;;52.55;18.58;;;;;;;;;;6125910;23;20467;-89
2022/03/06 12:31:37;;;;;;;51.22;17.63;;;;;;;;;;6126458;23;20072;-88
2022/03/06 12:34:23;;;;;;;52.08;17.75;;;;;;;;;;6126085;23;20018;-88
2022/03/06 12:36:56;;;;;;;48.17;16.77;;;;;;;;;;6125500;23;20006;-89
2022/03/06 12:39:22;;;;;;;53.60;16.60;;;;;;;;;;6127568;23;19998;-87
2022/03/06 12:41:48;;;;;;;50.42;15.68;;;;;;;;;;6125864;23;20029;-89
2022/03/06 12:44:23;;;;;;;53.50;16.77;;;;;;;;;;6125113;23;20009;-88
2022/03/06 12:46:49;;;;;;;60.20;17.08;;;;;;;;;;6126965;23;20053;-88
2022/03/06 12:49:16;;;;;;;53.55;19.95;;;;;;;;;;6125442;23;20081;-87
2022/03/06 12:51:42;;;;;;;59.85;20.70;;;;;;;;;;6125585;23;20477;-87
2022/03/06 12:54:22;;;;;;;61.25;22.15;;;;;;;;;;6125258;23;20006;-87
2022/03/06 12:56:52;;;;;;;63.65;22.73;;;;;;;;;;6124957;23;20012;-88
2022/03/06 12:59:26;;;;;;;64.05;23.70;;;;;;;;;;6122459;23;20012;-89
2022/03/06 13:01:53;;;;;;;64.20;24.90;;;;;;;;;;6125103;23;20002;-87
2022/03/06 13:04:26;;;;;;;65.28;25.48;;;;;;;;;;6125081;23;20002;-88
2022/03/06 13:06:53;;;;;;;65.05;24.65;;;;;;;;;;6124765;23;20436;-89
2022/03/06 13:09:24;;;;;;;66.60;23.73;;;;;;;;;;6124857;23;20006;-88
2022/03/06 13:11:51;;;;;;;62.97;23.17;;;;;;;;;;6125970;23;20372;-89
2022/03/06 13:14:25;;;;;;;47.92;22.63;;;;;;;;;;6125324;23;20012;-88
2022/03/06 13:16:54;;;;;;;66.65;28.17;;;;;;;;;;6125085;23;20025;-90
2022/03/06 13:19:21;;;;;;;59.20;29.45;;;;;;;;;;6124980;23;20417;-88
2022/03/06 13:21:48;;;;;;;63.65;30.02;;;;;;;;;;6123808;23;20017;-90
2022/03/06 13:24:15;;;;;;;69.35;26.33;;;;;;;;;;6124133;23;20719;-89
2022/03/06 13:26:42;;;;;;;64.18;23.63;;;;;;;;;;6123278;23;20009;-90
2022/03/06 13:29:14;;;;;;;48.17;17.60;;;;;;;;;;6124145;23;20058;-89
2022/03/06 13:31:41;;;;;;;50.55;16.65;;;;;;;;;;6100261;23;20064;-89
2022/03/06 13:34:08;;;;;;;47.08;16.20;;;;;;;;;;6125018;23;20006;-89
2022/03/06 13:36:38;;;;;;;54.08;17.45;;;;;;;;;;6099212;23;20002;-88
2022/03/06 13:39:09;;;;;;;50.17;16.33;;;;;;;;;;6099682;23;20010;-88
2022/03/06 13:41:36;;;;;;;50.47;15.15;;;;;;;;;;6100968;23;20006;-88
2022/03/06 13:44:09;;;;;;;42.33;14.95;;;;;;;;;;6126470;23;20008;-89
2022/03/06 13:46:36;;;;;;;49.15;14.98;;;;;;;;;;6099963;23;20009;-88
2022/03/06 13:49:13;;;;;;;43.22;15.95;;;;;;;;;;6100564;23;20009;-88
2022/03/06 13:51:40;;;;;;;56.47;15.23;;;;;;;;;;6100730;23;20349;-89
2022/03/06 13:54:17;;;;;;;50.33;14.65;;;;;;;;;;6100914;23;20009;-89
2022/03/06 13:56:47;;;;;;;41.17;14.68;;;;;;;;;;6076931;23;20438;-90
2022/03/06 13:59:24;;;;;;;51.63;17.60;;;;;;;;;;6100208;23;20377;-88
2022/03/06 14:01:50;;;;;;;49.65;18.10;;;;;;;;;;6100586;23;20006;-88
2022/03/06 14:04:17;;;;;;;51.63;18.70;;;;;;;;;;6100590;23;20006;-89
2022/03/06 14:06:49;;;;;;;54.38;18.55;;;;;;;;;;6100264;23;20002;-89
2022/03/06 14:09:20;;;;;;;48.67;17.80;;;;;;;;;;6101117;23;20006;-89
2022/03/06 14:11:47;;;;;;;40.42;17.13;;;;;;;;;;6100400;23;20060;-89
2022/03/06 14:14:13;;;;;;;48.13;17.63;;;;;;;;;;6100865;23;20089;-91
2022/03/06 14:16:39;;;;;;;47.75;17.80;;;;;;;;;;6126166;23;20009;-88
2022/03/06 14:19:07;;;;;;;55.17;19.75;;;;;;;;;;6099485;23;20002;-88
2022/03/06 14:21:37;;;;;;;52.47;22.73;;;;;;;;;;6100632;23;20010;-88
2022/03/06 14:24:05;;;;;;;53.95;21.38;;;;;;;;;;6100997;23;20414;-90
2022/03/06 14:26:33;;;;;;;60.33;22.77;;;;;;;;;;6100245;23;20012;-93
2022/03/06 14:29:26;;;;;;;59.53;22.30;;;;;;;;;;6099671;23;20021;-88
2022/03/06 14:31:57;;;;;;;60.13;24.30;;;;;;;;;;6094399;23;20010;-89
2022/03/06 14:34:28;;;;;;;57.55;24.10;;;;;;;;;;6099445;23;20068;-90